VLG6UP LECO-LEBL
Flight info
| Callsign | VLG6UP |
|---|---|
| Flight time | N/A |
| Altitude | 32000 |
| Route | ROXER DCT LASKU DCT RONSI DCT OBETO M190 BLV M601 RONNY DCT SURCO M601 GRAUS |
| Aircraft | A320/M-SDFGHILORVWXY/LB1 |
Departure
| Time | 2026-05-05 12:09 |
|---|---|
| Airport | A Coruña Airport (LECO) |
Arrival
| Time | N/A |
|---|---|
| Airport | Josep Tarradellas Barcelona-El Prat Airport (LEBL) |
| Time | Latitude | Longitude | Altitude | Speed | Heading |
|---|---|---|---|---|---|
| 2026-05-05 11:06 | 43.30282 | -8.37980 | 274 ft | 0 kts | 301° |
| 2026-05-05 11:59 | 43.30280 | -8.37974 | 274 ft | 4 kts | 303° |
| 2026-05-05 11:59 | 43.30262 | -8.37948 | 275 ft | 4 kts | 333° |
| 2026-05-05 12:00 | 43.30238 | -8.37941 | 274 ft | 4 kts | 18° |
| 2026-05-05 12:00 | 43.30230 | -8.37945 | 277 ft | 0 kts | 31° |
| 2026-05-05 12:01 | 43.30231 | -8.37945 | 274 ft | 1 kts | 31° |
| 2026-05-05 12:02 | 43.30246 | -8.37932 | 274 ft | 4 kts | 31° |
| 2026-05-05 12:02 | 43.30276 | -8.37898 | 274 ft | 6 kts | 62° |
| 2026-05-05 12:02 | 43.30273 | -8.37867 | 274 ft | 0 kts | 113° |
| 2026-05-05 12:03 | 43.30272 | -8.37866 | 274 ft | 1 kts | 114° |
| 2026-05-05 12:03 | 43.30268 | -8.37855 | 274 ft | 0 kts | 118° |
| 2026-05-05 12:06 | 43.30267 | -8.37853 | 273 ft | 1 kts | 118° |
| 2026-05-05 12:06 | 43.30251 | -8.37818 | 273 ft | 8 kts | 122° |
| 2026-05-05 12:06 | 43.30218 | -8.37756 | 275 ft | 9 kts | 144° |
| 2026-05-05 12:06 | 43.30137 | -8.37782 | 275 ft | 17 kts | 212° |
| 2026-05-05 12:07 | 43.30017 | -8.37882 | 278 ft | 22 kts | 211° |
| 2026-05-05 12:07 | 43.29874 | -8.37999 | 273 ft | 26 kts | 211° |
| 2026-05-05 12:07 | 43.29710 | -8.38133 | 275 ft | 29 kts | 210° |
| 2026-05-05 12:07 | 43.29530 | -8.38282 | 270 ft | 31 kts | 211° |
| 2026-05-05 12:08 | 43.29356 | -8.38425 | 270 ft | 26 kts | 212° |
| 2026-05-05 12:08 | 43.29266 | -8.38527 | 271 ft | 11 kts | 236° |
| 2026-05-05 12:08 | 43.29210 | -8.38587 | 270 ft | 10 kts | 170° |
| 2026-05-05 12:08 | 43.29222 | -8.38535 | 271 ft | 7 kts | 32° |
| 2026-05-05 12:09 | 43.29346 | -8.38432 | 270 ft | 53 kts | 31° |
| 2026-05-05 12:09 | 43.29873 | -8.37999 | 274 ft | 121 kts | 31° |
| 2026-05-05 12:09 | 43.30719 | -8.37308 | 541 ft | 144 kts | 29° |
| 2026-05-05 12:09 | 43.31563 | -8.36592 | 1185 ft | 144 kts | 35° |
| 2026-05-05 12:10 | 43.32275 | -8.35615 | 1723 ft | 152 kts | 50° |
| 2026-05-05 12:10 | 43.32829 | -8.34228 | 1945 ft | 180 kts | 68° |
| 2026-05-05 12:10 | 43.33174 | -8.32456 | 2271 ft | 203 kts | 73° |
| 2026-05-05 12:10 | 43.33571 | -8.30477 | 2663 ft | 224 kts | 72° |
| 2026-05-05 12:11 | 43.34003 | -8.28381 | 3382 ft | 231 kts | 73° |
| 2026-05-05 12:11 | 43.34450 | -8.26236 | 4153 ft | 236 kts | 73° |
| 2026-05-05 12:11 | 43.34902 | -8.24062 | 4996 ft | 237 kts | 72° |
| 2026-05-05 12:11 | 43.35352 | -8.21882 | 5848 ft | 238 kts | 72° |
| 2026-05-05 12:12 | 43.35803 | -8.19688 | 6676 ft | 240 kts | 72° |
| 2026-05-05 12:12 | 43.36257 | -8.17474 | 7467 ft | 242 kts | 72° |
| 2026-05-05 12:12 | 43.36524 | -8.15207 | 8208 ft | 246 kts | 89° |
| 2026-05-05 12:12 | 43.36272 | -8.12753 | 8651 ft | 269 kts | 103° |
| 2026-05-05 12:13 | 43.35775 | -8.10167 | 9084 ft | 288 kts | 104° |
| 2026-05-05 12:13 | 43.35259 | -8.07505 | 9796 ft | 295 kts | 104° |
| 2026-05-05 12:13 | 43.34723 | -8.04737 | 10365 ft | 310 kts | 104° |
| 2026-05-05 12:13 | 43.34151 | -8.01780 | 10642 ft | 332 kts | 104° |
| 2026-05-05 12:14 | 43.33552 | -7.98666 | 11234 ft | 341 kts | 103° |
| 2026-05-05 12:14 | 43.32941 | -7.95496 | 11964 ft | 345 kts | 104° |
| 2026-05-05 12:14 | 43.32323 | -7.92296 | 12721 ft | 348 kts | 104° |
| 2026-05-05 12:14 | 43.31701 | -7.89064 | 13445 ft | 352 kts | 104° |
| 2026-05-05 12:15 | 43.31074 | -7.85798 | 14122 ft | 356 kts | 104° |
| 2026-05-05 12:15 | 43.30437 | -7.82495 | 14789 ft | 360 kts | 104° |
| 2026-05-05 12:15 | 43.29794 | -7.79164 | 15448 ft | 363 kts | 104° |
| 2026-05-05 12:15 | 43.29142 | -7.75796 | 16079 ft | 367 kts | 104° |
| 2026-05-05 12:16 | 43.28483 | -7.72388 | 16690 ft | 371 kts | 104° |
| 2026-05-05 12:16 | 43.27819 | -7.68951 | 17288 ft | 374 kts | 104° |
| 2026-05-05 12:16 | 43.27146 | -7.65487 | 17879 ft | 378 kts | 104° |
| 2026-05-05 12:16 | 43.26462 | -7.61986 | 18450 ft | 382 kts | 104° |
| 2026-05-05 12:17 | 43.25771 | -7.58453 | 19016 ft | 385 kts | 104° |
| 2026-05-05 12:17 | 43.25074 | -7.54892 | 19589 ft | 388 kts | 104° |
| 2026-05-05 12:17 | 43.24370 | -7.51304 | 20139 ft | 391 kts | 104° |
| 2026-05-05 12:17 | 43.23657 | -7.47687 | 20685 ft | 394 kts | 104° |
| 2026-05-05 12:18 | 43.22939 | -7.44042 | 21222 ft | 397 kts | 104° |
| 2026-05-05 12:18 | 43.22218 | -7.40367 | 21745 ft | 401 kts | 103° |
| 2026-05-05 12:18 | 43.21745 | -7.36594 | 22235 ft | 403 kts | 93° |
| 2026-05-05 12:18 | 43.21747 | -7.32752 | 22736 ft | 405 kts | 83° |
| 2026-05-05 12:19 | 43.22175 | -7.28932 | 23224 ft | 407 kts | 78° |
| 2026-05-05 12:19 | 43.22669 | -7.25099 | 23705 ft | 410 kts | 78° |
| 2026-05-05 12:19 | 43.23161 | -7.21238 | 24166 ft | 412 kts | 78° |
| 2026-05-05 12:19 | 43.23655 | -7.17351 | 24599 ft | 415 kts | 78° |
| 2026-05-05 12:20 | 43.24155 | -7.13444 | 24998 ft | 418 kts | 78° |
| 2026-05-05 12:20 | 43.24657 | -7.09502 | 25399 ft | 421 kts | 78° |
| 2026-05-05 12:20 | 43.25153 | -7.05579 | 25776 ft | 424 kts | 78° |
| 2026-05-05 12:20 | 43.25660 | -7.01531 | 26149 ft | 427 kts | 78° |
| 2026-05-05 12:21 | 43.26155 | -6.97549 | 26506 ft | 430 kts | 78° |
| 2026-05-05 12:21 | 43.26658 | -6.93490 | 26864 ft | 433 kts | 78° |
| 2026-05-05 12:21 | 43.27169 | -6.89400 | 27206 ft | 436 kts | 78° |
| 2026-05-05 12:21 | 43.27681 | -6.85287 | 27546 ft | 439 kts | 78° |
| 2026-05-05 12:22 | 43.28195 | -6.81156 | 27865 ft | 442 kts | 78° |
| 2026-05-05 12:22 | 43.28712 | -6.76990 | 28190 ft | 444 kts | 78° |
| 2026-05-05 12:22 | 43.29231 | -6.72798 | 28485 ft | 447 kts | 78° |
| 2026-05-05 12:22 | 43.29750 | -6.68577 | 28775 ft | 450 kts | 78° |
| 2026-05-05 12:23 | 43.30269 | -6.64332 | 29089 ft | 452 kts | 78° |
| 2026-05-05 12:23 | 43.30789 | -6.60065 | 29369 ft | 454 kts | 78° |
| 2026-05-05 12:23 | 43.31311 | -6.55780 | 29649 ft | 457 kts | 78° |
| 2026-05-05 12:23 | 43.31834 | -6.51467 | 29926 ft | 459 kts | 78° |
| 2026-05-05 12:24 | 43.32357 | -6.47130 | 30180 ft | 462 kts | 78° |
| 2026-05-05 12:24 | 43.32878 | -6.42768 | 30432 ft | 464 kts | 79° |
| 2026-05-05 12:24 | 43.33397 | -6.38386 | 30682 ft | 466 kts | 79° |
| 2026-05-05 12:24 | 43.33918 | -6.33995 | 30922 ft | 468 kts | 79° |
| 2026-05-05 12:25 | 43.34443 | -6.29574 | 31153 ft | 470 kts | 79° |
| 2026-05-05 12:25 | 43.34970 | -6.25133 | 31372 ft | 472 kts | 79° |
| 2026-05-05 12:25 | 43.35497 | -6.20678 | 31651 ft | 472 kts | 79° |
| 2026-05-05 12:25 | 43.36021 | -6.16226 | 31949 ft | 472 kts | 79° |
| 2026-05-05 12:26 | 43.37049 | -6.07465 | 32027 ft | 453 kts | 79° |
| 2026-05-05 12:26 | 43.38043 | -5.98982 | 32026 ft | 448 kts | 79° |
| 2026-05-05 12:27 | 43.39027 | -5.90533 | 32026 ft | 448 kts | 80° |
| 2026-05-05 12:27 | 43.39992 | -5.82091 | 32026 ft | 447 kts | 80° |
| 2026-05-05 12:28 | 43.40954 | -5.73638 | 32025 ft | 447 kts | 80° |
| 2026-05-05 12:28 | 43.41915 | -5.65188 | 32021 ft | 448 kts | 80° |
| 2026-05-05 12:29 | 43.42071 | -5.63818 | 32021 ft | 448 kts | 80° |